createdAt,value
2022-08-07T00:03:03.123Z,102528.47
2022-08-07T00:06:29.512Z,102519.91
2022-08-07T00:10:19.201Z,102521.84
2022-08-07T00:13:40.515Z,102516.66
2022-08-07T00:17:06.832Z,102523.19
2022-08-07T00:20:29.879Z,102525.34
2022-08-07T00:23:57.629Z,102527.41
2022-08-07T00:27:19.745Z,102528.66
2022-08-07T00:30:44.544Z,102526.25
2022-08-07T00:34:08.910Z,102526.47
2022-08-07T00:37:47.847Z,102530.31
2022-08-07T00:41:14.881Z,102530.66
2022-08-07T00:44:38.320Z,102522.94
2022-08-07T00:48:09.587Z,102524.00
2022-08-07T00:51:56.895Z,102523.44
2022-08-07T00:55:17.506Z,102522.16
2022-08-07T00:58:49.570Z,102518.94
2022-08-07T01:02:27.887Z,102513.88
2022-08-07T01:05:51.585Z,102515.06
2022-08-07T01:10:04.013Z,102526.84
2022-08-07T01:12:57.858Z,102518.25
2022-08-07T01:16:29.970Z,102515.03
2022-08-07T01:19:54.942Z,102518.84
2022-08-07T01:23:18.719Z,102515.63
2022-08-07T01:27:00.200Z,102524.91
2022-08-07T01:30:27.190Z,102524.81
2022-08-07T01:33:55.975Z,102520.50
2022-08-07T01:37:22.705Z,102511.09
2022-08-07T01:40:50.521Z,102518.38
2022-08-07T01:44:15.409Z,102518.78
2022-08-07T01:48:19.203Z,102512.84
2022-08-07T01:52:02.074Z,102510.56
2022-08-07T01:55:09.431Z,102514.41
2022-08-07T01:58:51.933Z,102522.53
2022-08-07T02:02:32.949Z,102521.66
2022-08-07T02:06:09.009Z,102520.91
2022-08-07T02:09:58.506Z,102522.72
2022-08-07T02:13:23.614Z,102533.50
2022-08-07T02:17:08.055Z,102526.53
2022-08-07T02:20:33.130Z,102531.13
2022-08-07T02:23:55.532Z,102532.28
2022-08-07T02:27:21.762Z,102535.25
2022-08-07T02:30:46.167Z,102530.94
2022-08-07T02:34:18.004Z,102536.50
2022-08-07T02:37:47.842Z,102527.81
2022-08-07T02:41:13.846Z,102526.38
2022-08-07T02:44:48.150Z,102524.84
2022-08-07T02:48:15.531Z,102519.78
2022-08-07T02:51:51.840Z,102526.47
2022-08-07T02:55:28.608Z,102526.75
2022-08-07T02:59:05.729Z,102528.75
2022-08-07T03:02:28.554Z,102522.53
2022-08-07T03:05:52.130Z,102526.34
2022-08-07T03:09:43.628Z,102528.34
2022-08-07T03:13:01.558Z,102524.16
2022-08-07T03:16:27.810Z,102521.78
2022-08-07T03:19:54.747Z,102519.31
2022-08-07T03:23:20.025Z,102519.56
2022-08-07T03:27:02.002Z,102513.56
2022-08-07T03:30:34.982Z,102526.13
2022-08-07T03:34:01.862Z,102524.41
2022-08-07T03:37:29.067Z,102528.91
2022-08-07T03:40:57.793Z,102526.31
2022-08-07T03:44:34.570Z,102538.81
2022-08-07T03:47:58.252Z,102530.81
2022-08-07T03:51:22.464Z,102534.31
2022-08-07T03:54:54.339Z,102538.81
2022-08-07T03:59:05.587Z,102532.78
2022-08-07T04:02:03.494Z,102535.66
2022-08-07T04:05:39.734Z,102537.44
2022-08-07T04:09:06.520Z,102534.69
2022-08-07T04:12:38.975Z,102532.88
2022-08-07T04:16:01.270Z,102538.91
2022-08-07T04:19:51.578Z,102539.78
2022-08-07T04:23:09.554Z,102538.91
2022-08-07T04:26:43.621Z,102543.38
2022-08-07T04:30:11.843Z,102534.50
2022-08-07T04:33:54.987Z,102548.06
2022-08-07T04:37:21.502Z,102550.06
2022-08-07T04:40:52.231Z,102554.09
2022-08-07T04:44:28.140Z,102550.47
2022-08-07T04:48:10.142Z,102551.16
2022-08-07T04:51:41.422Z,102541.16
2022-08-07T04:58:12.160Z,102542.28
2022-08-07T05:00:07.984Z,102544.56
2022-08-07T05:02:54.238Z,102554.88
2022-08-07T05:06:28.080Z,102554.50
2022-08-07T05:09:59.147Z,102555.94
2022-08-07T05:14:53.976Z,102561.78
2022-08-07T05:17:50.433Z,102558.59
2022-08-07T05:21:05.852Z,102551.94
2022-08-07T05:24:40.280Z,102553.31
2022-08-07T05:28:20.874Z,102549.31
2022-08-07T05:31:52.771Z,102553.75
2022-08-07T05:35:33.105Z,102552.03
2022-08-07T05:40:05.547Z,102551.28
2022-08-07T05:42:40.653Z,102548.66
2022-08-07T05:46:06.547Z,102548.91
2022-08-07T05:49:40.504Z,102550.88
2022-08-07T05:53:04.495Z,102558.16
2022-08-07T05:56:29.972Z,102559.25
2022-08-07T05:59:58.175Z,102559.31
2022-08-07T06:03:25.007Z,102556.81
2022-08-07T06:07:08.737Z,102551.69
2022-08-07T06:10:46.046Z,102551.69
2022-08-07T06:14:21.012Z,102557.03
2022-08-07T06:17:53.398Z,102551.75
2022-08-07T06:22:16.402Z,102559.69
2022-08-07T06:25:02.972Z,102557.09
2022-08-07T06:28:28.166Z,102562.72
2022-08-07T06:31:51.212Z,102563.91
2022-08-07T06:35:17.951Z,102565.16
2022-08-07T06:38:58.470Z,102562.22
2022-08-07T06:42:35.035Z,102564.63
2022-08-07T06:46:06.854Z,102557.47
2022-08-07T06:49:34.242Z,102564.59
2022-08-07T06:53:49.272Z,102553.53
2022-08-07T06:57:03.630Z,102553.22
2022-08-07T07:00:35.375Z,102552.88
2022-08-07T07:04:08.245Z,102554.34
2022-08-07T07:07:59.982Z,102562.97
2022-08-07T07:12:09.564Z,102566.25
2022-08-07T07:15:23.550Z,102555.34
2022-08-07T07:18:54.786Z,102554.84
2022-08-07T07:22:36.364Z,102551.13
2022-08-07T07:26:35.523Z,102540.13
2022-08-07T07:30:08.984Z,102553.13
2022-08-07T07:33:35.091Z,102545.63
2022-08-07T07:37:05.462Z,102544.47
2022-08-07T07:40:43.241Z,102530.81
2022-08-07T07:44:17.340Z,102529.63
2022-08-07T07:47:52.779Z,102532.25
2022-08-07T07:51:18.664Z,102522.97
2022-08-07T07:54:51.012Z,102522.72
2022-08-07T07:58:15.398Z,102515.69
2022-08-07T08:02:02.469Z,102518.41
2022-08-07T08:05:32.203Z,102511.97
2022-08-07T08:09:08.109Z,102509.72
2022-08-07T08:12:52.364Z,102508.59
2022-08-07T08:16:18.062Z,102503.06
2022-08-07T08:20:17.493Z,102503.97
2022-08-07T08:23:41.951Z,102505.09
2022-08-07T08:27:10.038Z,102495.13
2022-08-07T08:30:42.491Z,102496.97
2022-08-07T08:34:06.932Z,102491.19
2022-08-07T08:38:00.257Z,102492.59
2022-08-07T08:41:26.206Z,102482.63
2022-08-07T08:45:15.410Z,102489.84
2022-08-07T08:48:45.746Z,102479.03
2022-08-07T08:52:19.511Z,102478.13
2022-08-07T08:55:54.704Z,102476.25
2022-08-07T08:59:28.811Z,102477.19
2022-08-07T09:02:57.675Z,102476.47
2022-08-07T09:06:28.659Z,102479.53
2022-08-07T09:09:59.784Z,102478.34
2022-08-07T09:13:37.514Z,102484.84
2022-08-07T09:17:16.111Z,102469.94
2022-08-07T09:20:58.599Z,102462.19
2022-08-07T09:24:54.880Z,102469.44
2022-08-07T09:30:05.418Z,102471.03
2022-08-07T09:32:23.811Z,102468.75
2022-08-07T09:36:01.375Z,102453.91
2022-08-07T09:39:56.027Z,102456.69
2022-08-07T09:43:40.241Z,102448.50
2022-08-07T09:47:55.118Z,102445.84
2022-08-07T09:52:17.071Z,102442.19
2022-08-07T09:55:29.591Z,102436.25
2022-08-07T09:59:46.141Z,102439.03
2022-08-07T10:04:06.677Z,102429.38
2022-08-07T10:07:52.813Z,102430.56
2022-08-07T10:12:01.578Z,102425.31
2022-08-07T10:22:14.137Z,102410.00
2022-08-07T10:25:10.478Z,102403.25
2022-08-07T10:28:49.722Z,102412.78
2022-08-07T10:36:50.892Z,102402.13
2022-08-07T10:40:37.926Z,102398.59
2022-08-07T10:44:13.460Z,102392.63
2022-08-07T10:48:34.688Z,102387.91
2022-08-07T10:52:19.247Z,102378.97
2022-08-07T10:56:53.704Z,102388.78
2022-08-07T11:00:39.404Z,102381.66
2022-08-07T11:04:32.206Z,102367.94
2022-08-07T11:08:34.088Z,102361.91
2022-08-07T11:12:32.045Z,102364.28
2022-08-07T11:21:31.968Z,102350.53
2022-08-07T11:25:06.598Z,102349.03
2022-08-07T11:28:42.416Z,102346.19
2022-08-07T11:32:11.263Z,102340.13
2022-08-07T11:35:59.448Z,102331.50
2022-08-07T11:40:00.329Z,102333.38
2022-08-07T11:43:54.465Z,102331.00
2022-08-07T11:48:13.824Z,102329.69
2022-08-07T11:52:10.387Z,102319.81
2022-08-07T11:56:25.958Z,102306.78
2022-08-07T12:00:19.327Z,102310.69
2022-08-07T12:04:24.915Z,102310.84
2022-08-07T12:08:04.125Z,102303.38
2022-08-07T12:12:09.373Z,102301.84
2022-08-07T12:16:06.134Z,102302.19
2022-08-07T12:20:02.621Z,102301.50
2022-08-07T12:24:07.102Z,102294.72
2022-08-07T12:28:08.836Z,102299.31
2022-08-07T12:31:52.930Z,102288.13
2022-08-07T12:35:29.247Z,102288.59
2022-08-07T12:39:43.239Z,102290.13
2022-08-07T12:43:09.691Z,102283.88
2022-08-07T12:46:47.623Z,102277.44
2022-08-07T12:50:38.568Z,102283.19
2022-08-07T12:54:36.837Z,102277.25
2022-08-07T12:58:01.464Z,102270.97
2022-08-07T13:01:41.385Z,102266.38
2022-08-07T13:06:03.893Z,102269.41
2022-08-07T13:10:22.028Z,102257.66
2022-08-07T13:13:46.941Z,102253.25
2022-08-07T13:17:21.287Z,102252.59
2022-08-07T13:20:51.169Z,102250.50
2022-08-07T13:24:25.621Z,102247.91
2022-08-07T13:28:10.828Z,102240.56
2022-08-07T13:31:46.204Z,102241.56
2022-08-07T13:35:59.560Z,102234.41
2022-08-07T13:40:32.599Z,102234.50
2022-08-07T13:43:15.074Z,102222.44
2022-08-07T13:46:41.882Z,102219.91
2022-08-07T13:50:33.011Z,102208.19
2022-08-07T13:54:01.997Z,102207.66
2022-08-07T13:57:32.112Z,102198.81
2022-08-07T14:01:09.150Z,102201.47
2022-08-07T14:04:48.918Z,102195.38
2022-08-07T14:08:18.634Z,102195.19
2022-08-07T14:12:00.311Z,102189.75
2022-08-07T14:15:31.977Z,102196.22
2022-08-07T14:19:00.806Z,102201.63
2022-08-07T14:22:39.785Z,102194.88
2022-08-07T14:26:30.394Z,102194.03
2022-08-07T14:30:11.704Z,102188.63
2022-08-07T14:33:44.878Z,102169.69
2022-08-07T14:37:16.171Z,102178.78
2022-08-07T14:40:40.612Z,102173.69
2022-08-07T14:44:19.166Z,102178.09
2022-08-07T14:47:58.752Z,102171.34
2022-08-07T14:51:28.068Z,102165.53
2022-08-07T14:55:17.505Z,102164.13
2022-08-07T14:58:44.127Z,102169.59
2022-08-07T15:02:33.211Z,102154.44
2022-08-07T15:06:04.095Z,102150.25
2022-08-07T15:09:59.119Z,102151.91
2022-08-07T15:13:38.363Z,102146.91
2022-08-07T15:22:04.557Z,102153.34
2022-08-07T15:25:40.014Z,102157.28
2022-08-07T15:30:10.049Z,102154.78
2022-08-07T15:33:42.738Z,102146.06
2022-08-07T15:38:04.456Z,102139.13
2022-08-07T15:42:45.731Z,102144.31
2022-08-07T15:45:56.466Z,102140.78
2022-08-07T15:50:05.398Z,102137.66
2022-08-07T15:53:52.296Z,102136.56
2022-08-07T15:57:40.119Z,102133.16
2022-08-07T16:02:15.585Z,102128.69
2022-08-07T16:05:51.902Z,102120.34
2022-08-07T16:14:38.237Z,102127.69
2022-08-07T16:18:13.475Z,102128.69
2022-08-07T16:22:36.172Z,102129.84
2022-08-07T16:26:15.243Z,102123.88
2022-08-07T16:34:25.319Z,102122.78
2022-08-07T16:44:06.218Z,102130.97
2022-08-07T16:47:56.467Z,102127.59
2022-08-07T16:51:54.516Z,102128.69
2022-08-07T16:55:43.710Z,102125.59
2022-08-07T16:59:26.034Z,102124.84
2022-08-07T17:03:57.651Z,102119.84
2022-08-07T17:07:55.071Z,102118.63
2022-08-07T17:26:58.064Z,102126.16
2022-08-07T17:30:26.812Z,102124.00
2022-08-07T17:34:15.355Z,102123.34
2022-08-07T17:38:09.625Z,102128.97
2022-08-07T17:42:03.992Z,102132.56
2022-08-07T17:45:42.278Z,102131.69
2022-08-07T17:49:14.666Z,102134.41
2022-08-07T17:52:50.525Z,102136.50
2022-08-07T17:56:25.931Z,102134.81
2022-08-07T18:00:48.843Z,102131.44
2022-08-07T18:04:31.229Z,102134.75
2022-08-07T18:08:12.738Z,102130.88
2022-08-07T18:12:27.896Z,102132.03
2022-08-07T18:16:07.413Z,102124.81
2022-08-07T18:21:02.432Z,102123.03
2022-08-07T18:24:51.481Z,102122.47
2022-08-07T18:30:06.592Z,102129.19
2022-08-07T18:33:27.128Z,102138.03
2022-08-07T18:38:56.627Z,102139.47
2022-08-07T18:42:48.650Z,102144.44
2022-08-07T18:47:22.513Z,102147.47
2022-08-07T18:52:34.249Z,102147.75
2022-08-07T18:55:40.835Z,102149.91
2022-08-07T18:59:47.846Z,102157.28
2022-08-07T19:03:41.538Z,102156.88
2022-08-07T19:07:51.882Z,102166.47
2022-08-07T19:11:36.210Z,102169.41
2022-08-07T19:16:03.720Z,102165.56
2022-08-07T19:25:07.581Z,102171.84
2022-08-07T19:30:53.696Z,102176.75
2022-08-07T19:36:28.887Z,102179.72
2022-08-07T19:40:34.589Z,102173.53
2022-08-07T19:44:21.685Z,102187.84
2022-08-07T19:47:56.081Z,102183.22
2022-08-07T19:55:58.083Z,102192.84
2022-08-07T19:59:27.280Z,102194.41
2022-08-07T20:03:33.481Z,102192.78
2022-08-07T20:07:10.136Z,102194.03
2022-08-07T20:10:55.196Z,102200.53
2022-08-07T20:14:31.336Z,102204.63
2022-08-07T20:18:01.702Z,102204.88
2022-08-07T20:21:29.166Z,102209.63
2022-08-07T20:25:12.875Z,102217.97
2022-08-07T20:28:51.802Z,102226.41
2022-08-07T20:32:22.942Z,102218.50
2022-08-07T20:36:03.701Z,102220.41
2022-08-07T20:40:02.501Z,102227.53
2022-08-07T20:43:28.030Z,102240.06
2022-08-07T20:47:04.283Z,102231.88
2022-08-07T20:50:34.782Z,102238.84
2022-08-07T20:54:11.967Z,102239.56
2022-08-07T20:58:02.649Z,102232.06
2022-08-07T21:01:45.919Z,102236.50
2022-08-07T21:05:42.575Z,102237.38
2022-08-07T21:09:24.634Z,102229.16
2022-08-07T21:12:59.130Z,102227.28
2022-08-07T21:16:27.332Z,102236.94
2022-08-07T21:20:04.724Z,102232.28
2022-08-07T21:23:49.555Z,102238.91
2022-08-07T21:27:20.214Z,102233.25
2022-08-07T21:30:56.729Z,102235.66
2022-08-07T21:34:32.229Z,102228.28
2022-08-07T21:38:19.440Z,102232.53
2022-08-07T21:42:02.704Z,102234.09
2022-08-07T21:46:04.906Z,102235.94
2022-08-07T21:49:40.686Z,102229.53
2022-08-07T21:53:18.250Z,102229.38
2022-08-07T21:56:53.751Z,102238.13
2022-08-07T22:00:24.895Z,102238.53
2022-08-07T22:04:00.242Z,102234.13
2022-08-07T22:07:42.886Z,102243.19
2022-08-07T22:11:11.093Z,102244.59
2022-08-07T22:14:59.262Z,102241.44
2022-08-07T22:18:29.662Z,102241.84
2022-08-07T22:22:17.817Z,102251.56
2022-08-07T22:26:02.618Z,102251.53
2022-08-07T22:29:47.650Z,102244.97
2022-08-07T22:33:15.072Z,102250.19
2022-08-07T22:36:46.597Z,102255.13
2022-08-07T22:40:17.240Z,102243.75
2022-08-07T22:43:44.780Z,102264.69
2022-08-07T22:47:35.351Z,102254.22
2022-08-07T22:51:23.259Z,102263.38
2022-08-07T22:55:22.864Z,102264.38
2022-08-07T22:59:16.248Z,102258.16
2022-08-07T23:03:04.191Z,102262.06
2022-08-07T23:06:56.155Z,102260.63
2022-08-07T23:10:38.607Z,102252.09
2022-08-07T23:14:20.815Z,102262.53
2022-08-07T23:18:03.405Z,102261.34
2022-08-07T23:21:30.122Z,102268.94
2022-08-07T23:25:05.012Z,102269.59
2022-08-07T23:28:54.389Z,102266.53
2022-08-07T23:34:21.156Z,102269.03
2022-08-07T23:36:22.697Z,102267.94
2022-08-07T23:40:04.202Z,102265.03
2022-08-07T23:44:06.826Z,102273.59
2022-08-07T23:47:55.404Z,102270.56
2022-08-07T23:52:59.824Z,102268.50
2022-08-07T23:55:52.987Z,102269.97
2022-08-07T23:59:10.515Z,102269.50
